createdAt,value
2023-01-29T00:03:18.231Z,96150.38
2023-01-29T00:07:02.289Z,96149.81
2023-01-29T00:10:48.150Z,96151.13
2023-01-29T00:14:33.885Z,96152.59
2023-01-29T00:18:16.610Z,96147.59
2023-01-29T00:21:59.343Z,96158.16
2023-01-29T00:25:43.641Z,96157.34
2023-01-29T00:29:26.323Z,96159.81
2023-01-29T00:33:08.978Z,96168.28
2023-01-29T00:36:51.725Z,96166.63
2023-01-29T00:40:55.402Z,96163.59
2023-01-29T00:44:57.008Z,96173.25
2023-01-29T00:48:39.712Z,96163.72
2023-01-29T00:52:25.347Z,96173.94
2023-01-29T00:56:08.281Z,96167.38
2023-01-29T00:59:52.468Z,96165.97
2023-01-29T01:03:35.432Z,96173.28
2023-01-29T01:07:18.168Z,96168.38
2023-01-29T01:11:02.849Z,96165.66
2023-01-29T01:14:46.100Z,96167.16
2023-01-29T01:18:32.892Z,96164.13
2023-01-29T01:22:15.593Z,96180.38
2023-01-29T01:25:58.352Z,96172.72
2023-01-29T01:29:41.090Z,96167.22
2023-01-29T01:33:24.331Z,96172.38
2023-01-29T01:37:08.491Z,96174.72
2023-01-29T01:40:51.144Z,96188.75
2023-01-29T01:44:55.467Z,96182.75
2023-01-29T01:48:38.160Z,96177.31
2023-01-29T01:52:22.827Z,96168.59
2023-01-29T01:56:11.268Z,96176.38
2023-01-29T01:59:58.509Z,96178.97
2023-01-29T02:04:01.745Z,96173.09
2023-01-29T02:08:05.407Z,96182.50
2023-01-29T02:11:48.165Z,96174.72
2023-01-29T02:15:30.857Z,96176.63
2023-01-29T02:19:19.992Z,96180.16
2023-01-29T02:23:27.025Z,96189.31
2023-01-29T02:27:12.181Z,96192.84
2023-01-29T02:31:02.749Z,96192.03
2023-01-29T02:35:11.109Z,96183.19
2023-01-29T02:39:00.128Z,96169.31
2023-01-29T02:42:48.369Z,96176.81
2023-01-29T02:46:35.739Z,96161.53
2023-01-29T02:50:21.527Z,96156.38
2023-01-29T02:54:08.535Z,96156.25
2023-01-29T02:57:52.509Z,96149.28
2023-01-29T03:01:40.664Z,96144.94
2023-01-29T03:05:28.667Z,96158.59
2023-01-29T03:09:14.783Z,96149.03
2023-01-29T03:13:01.673Z,96152.59
2023-01-29T03:16:48.696Z,96155.88
2023-01-29T03:20:35.206Z,96164.69
2023-01-29T03:24:39.986Z,96154.22
2023-01-29T03:28:40.359Z,96166.22
2023-01-29T03:32:26.588Z,96165.41
2023-01-29T03:36:13.101Z,96173.03
2023-01-29T03:39:58.692Z,96179.38
2023-01-29T03:43:48.464Z,96163.13
2023-01-29T03:47:40.516Z,96176.09
2023-01-29T03:51:28.260Z,96155.13
2023-01-29T03:55:15.241Z,96150.19
2023-01-29T03:59:01.099Z,96148.31
2023-01-29T04:02:50.582Z,96143.13
2023-01-29T04:06:34.944Z,96134.66
2023-01-29T04:10:19.390Z,96131.13
2023-01-29T04:14:02.106Z,96126.75
2023-01-29T04:17:50.068Z,96129.47
2023-01-29T04:21:33.105Z,96135.47
2023-01-29T04:25:17.971Z,96136.53
2023-01-29T04:29:11.755Z,96135.72
2023-01-29T04:33:03.193Z,96134.66
2023-01-29T04:36:55.337Z,96127.00
2023-01-29T04:40:48.903Z,96141.72
2023-01-29T04:44:35.609Z,96145.25
2023-01-29T04:48:23.464Z,96144.31
2023-01-29T04:52:10.807Z,96149.13
2023-01-29T04:55:57.537Z,96134.41
2023-01-29T04:59:43.094Z,96136.28
2023-01-29T05:03:28.484Z,96129.72
2023-01-29T05:07:15.305Z,96134.09
2023-01-29T05:11:01.193Z,96146.22
2023-01-29T05:14:48.065Z,96145.00
2023-01-29T05:18:32.230Z,96143.13
2023-01-29T05:22:17.158Z,96146.41
2023-01-29T05:26:00.016Z,96146.41
2023-01-29T05:29:45.243Z,96163.59
2023-01-29T05:33:29.358Z,96168.78
2023-01-29T05:37:13.376Z,96177.47
2023-01-29T05:40:56.035Z,96177.72
2023-01-29T05:44:38.685Z,96181.97
2023-01-29T05:48:21.402Z,96180.78
2023-01-29T05:52:04.232Z,96179.69
2023-01-29T05:55:48.956Z,96185.47
2023-01-29T05:59:31.907Z,96173.94
2023-01-29T06:03:14.571Z,96170.13
2023-01-29T06:06:57.245Z,96177.94
2023-01-29T06:10:39.951Z,96186.19
2023-01-29T06:14:24.081Z,96173.38
2023-01-29T06:18:08.992Z,96167.94
2023-01-29T06:21:51.705Z,96167.94
2023-01-29T06:25:34.419Z,96170.28
2023-01-29T06:29:17.080Z,96180.66
2023-01-29T06:33:02.814Z,96170.28
2023-01-29T06:36:45.702Z,96174.78
2023-01-29T06:40:28.352Z,96179.94
2023-01-29T06:44:10.990Z,96175.59
2023-01-29T06:47:53.671Z,96183.81
2023-01-29T06:51:37.772Z,96180.41
2023-01-29T06:55:20.422Z,96183.69
2023-01-29T06:59:03.123Z,96184.38
2023-01-29T07:02:45.846Z,96177.31
2023-01-29T07:06:29.510Z,96166.72
2023-01-29T07:10:13.776Z,96181.75
2023-01-29T07:13:56.727Z,96176.47
2023-01-29T07:17:39.909Z,96178.22
2023-01-29T07:21:22.609Z,96174.00
2023-01-29T07:25:06.179Z,96157.38
2023-01-29T07:28:50.197Z,96161.38
2023-01-29T07:32:32.917Z,96159.72
2023-01-29T07:36:16.009Z,96153.97
2023-01-29T07:40:01.150Z,96148.03
2023-01-29T07:43:43.840Z,96151.69
2023-01-29T07:47:27.943Z,96147.66
2023-01-29T07:51:10.635Z,96153.56
2023-01-29T07:54:53.392Z,96151.09
2023-01-29T07:58:36.903Z,96153.34
2023-01-29T08:02:19.731Z,96147.94
2023-01-29T08:06:07.144Z,96143.59
2023-01-29T08:09:49.784Z,96145.09
2023-01-29T08:13:33.144Z,96140.19
2023-01-29T08:17:15.879Z,96142.66
2023-01-29T08:21:01.008Z,96150.53
2023-01-29T08:24:53.781Z,96141.25
2023-01-29T08:28:42.727Z,96157.34
2023-01-29T08:32:25.370Z,96157.91
2023-01-29T08:36:09.280Z,96160.38
2023-01-29T08:39:54.444Z,96162.53
2023-01-29T08:43:55.795Z,96175.91
2023-01-29T08:47:38.521Z,96184.38
2023-01-29T08:51:21.551Z,96186.94
2023-01-29T08:55:06.355Z,96207.75
2023-01-29T08:58:49.035Z,96188.03
2023-01-29T09:02:31.804Z,96193.91
2023-01-29T09:06:15.489Z,96197.72
2023-01-29T09:09:58.174Z,96204.53
2023-01-29T09:13:42.319Z,96215.22
2023-01-29T09:17:25.098Z,96216.03
2023-01-29T09:21:07.759Z,96223.13
2023-01-29T09:24:50.457Z,96228.28
2023-01-29T09:28:33.143Z,96226.28
2023-01-29T09:32:37.707Z,96224.03
2023-01-29T09:36:19.860Z,96227.34
2023-01-29T09:40:02.631Z,96222.84
2023-01-29T09:43:49.315Z,96234.09
2023-01-29T09:47:35.041Z,96239.75
2023-01-29T09:51:26.697Z,96241.63
2023-01-29T09:55:16.357Z,96249.28
2023-01-29T10:03:04.155Z,96243.03
2023-01-29T10:03:22.187Z,96235.69
2023-01-29T10:07:17.391Z,96218.25
2023-01-29T10:11:05.857Z,96230.25
2023-01-29T10:14:55.639Z,96234.38
2023-01-29T10:19:07.060Z,96227.03
2023-01-29T10:23:07.245Z,96221.22
2023-01-29T10:26:50.459Z,96225.22
2023-01-29T10:30:35.155Z,96224.25
2023-01-29T10:34:26.019Z,96214.59
2023-01-29T10:38:25.611Z,96216.47
2023-01-29T10:42:19.558Z,96210.59
2023-01-29T10:46:11.978Z,96213.19
2023-01-29T10:50:11.320Z,96212.69
2023-01-29T10:54:05.293Z,96213.28
2023-01-29T10:57:57.446Z,96210.56
2023-01-29T11:01:42.117Z,96207.13
2023-01-29T11:05:28.769Z,96200.78
2023-01-29T11:09:20.552Z,96197.28
2023-01-29T11:13:03.951Z,96198.72
2023-01-29T11:16:48.987Z,96192.47
2023-01-29T11:20:34.205Z,96194.22
2023-01-29T11:24:17.581Z,96189.47
2023-01-29T11:28:01.852Z,96188.81
2023-01-29T11:31:44.605Z,96179.78
2023-01-29T11:35:30.238Z,96176.75
2023-01-29T11:39:22.118Z,96176.38
2023-01-29T11:43:22.535Z,96173.81
2023-01-29T11:47:13.985Z,96167.47
2023-01-29T11:51:00.674Z,96160.38
2023-01-29T11:54:50.494Z,96136.44
2023-01-29T11:58:34.706Z,96107.50
2023-01-29T12:02:36.129Z,96087.31
2023-01-29T12:06:21.526Z,96081.91
2023-01-29T12:10:06.473Z,96083.03
2023-01-29T12:13:54.901Z,96086.31
2023-01-29T12:17:40.225Z,96087.13
2023-01-29T12:21:28.297Z,96084.19
2023-01-29T12:25:21.541Z,96088.56
2023-01-29T12:29:17.387Z,96087.72
2023-01-29T12:33:04.642Z,96097.00
2023-01-29T12:36:53.176Z,96112.97
2023-01-29T12:40:56.371Z,96112.84
2023-01-29T12:44:42.579Z,96087.06
2023-01-29T12:48:29.030Z,96088.91
2023-01-29T12:52:14.510Z,96080.41
2023-01-29T12:56:00.893Z,96080.97
2023-01-29T12:59:47.242Z,96074.69
2023-01-29T13:03:35.993Z,96062.81
2023-01-29T13:07:23.591Z,96070.25
2023-01-29T13:11:09.784Z,96047.88
2023-01-29T13:14:55.406Z,96050.69
2023-01-29T13:18:45.085Z,96032.06
2023-01-29T13:22:30.058Z,96026.63
2023-01-29T13:26:14.436Z,96027.63
2023-01-29T13:29:58.291Z,96022.06
2023-01-29T13:33:42.255Z,96022.81
2023-01-29T13:37:29.345Z,96021.44
2023-01-29T13:41:14.861Z,96017.22
2023-01-29T13:44:59.047Z,96010.25
2023-01-29T13:48:46.809Z,96015.97
2023-01-29T13:52:37.105Z,96007.84
2023-01-29T13:56:36.389Z,96006.22
2023-01-29T14:00:59.247Z,96003.78
2023-01-29T14:04:41.942Z,96005.31
2023-01-29T14:08:40.247Z,95997.59
2023-01-29T14:12:44.293Z,95998.31
2023-01-29T14:16:36.089Z,95987.00
2023-01-29T14:20:20.948Z,95989.22
2023-01-29T14:24:11.472Z,95983.53
2023-01-29T14:27:55.803Z,95984.84
2023-01-29T14:31:42.900Z,95990.53
2023-01-29T14:35:27.967Z,95998.50
2023-01-29T14:39:22.186Z,96003.84
2023-01-29T14:43:08.031Z,96016.53
2023-01-29T14:46:50.846Z,96012.25
2023-01-29T14:50:59.190Z,96028.47
2023-01-29T14:54:41.901Z,96028.28
2023-01-29T14:58:30.312Z,96020.59
2023-01-29T15:02:16.758Z,96009.97
2023-01-29T15:06:00.791Z,96005.94
2023-01-29T15:09:47.781Z,96002.91
2023-01-29T15:13:37.082Z,96002.66
2023-01-29T15:17:24.169Z,96003.84
2023-01-29T15:21:12.772Z,95989.28
2023-01-29T15:25:07.331Z,96003.25
2023-01-29T15:29:03.584Z,96006.97
2023-01-29T15:32:47.273Z,96015.56
2023-01-29T15:36:31.855Z,96009.44
2023-01-29T15:40:16.781Z,96009.09
2023-01-29T15:44:02.022Z,96011.91
2023-01-29T15:47:44.951Z,96015.94
2023-01-29T15:51:34.168Z,96012.88
2023-01-29T15:55:17.485Z,96018.38
2023-01-29T15:59:09.345Z,96011.91
2023-01-29T16:02:52.777Z,96026.97
2023-01-29T16:06:39.201Z,96029.69
2023-01-29T16:10:23.776Z,96016.41
2023-01-29T16:14:11.793Z,96019.44
2023-01-29T16:17:54.756Z,96033.31
2023-01-29T16:21:39.288Z,96026.50
2023-01-29T16:25:21.960Z,96037.81
2023-01-29T16:29:05.882Z,96027.72
2023-01-29T16:32:50.501Z,96030.41
2023-01-29T16:36:33.262Z,96040.41
2023-01-29T16:40:22.750Z,96044.41
2023-01-29T16:44:32.137Z,96051.25
2023-01-29T16:48:29.547Z,96046.69
2023-01-29T16:52:20.546Z,96054.41
2023-01-29T16:56:06.865Z,96064.28
2023-01-29T16:59:50.016Z,96065.81
2023-01-29T17:03:35.006Z,96069.56
2023-01-29T17:07:21.311Z,96066.03
2023-01-29T17:11:04.211Z,96076.22
2023-01-29T17:14:54.908Z,96074.84
2023-01-29T17:18:39.829Z,96078.94
2023-01-29T17:22:22.461Z,96087.63
2023-01-29T17:26:07.021Z,96078.94
2023-01-29T17:29:52.064Z,96073.28
2023-01-29T17:33:35.798Z,96077.88
2023-01-29T17:37:20.158Z,96071.19
2023-01-29T17:41:05.555Z,96062.47
2023-01-29T17:44:48.223Z,96070.22
2023-01-29T17:48:31.589Z,96071.63
2023-01-29T17:52:14.322Z,96076.56
2023-01-29T17:55:58.431Z,96072.13
2023-01-29T17:59:41.132Z,96068.50
2023-01-29T18:03:23.995Z,96070.38
2023-01-29T18:07:06.685Z,96070.72
2023-01-29T18:10:49.335Z,96066.38
2023-01-29T18:14:33.333Z,96065.53
2023-01-29T18:18:17.521Z,96054.84
2023-01-29T18:22:00.141Z,96055.19
2023-01-29T18:25:43.176Z,96062.97
2023-01-29T18:29:30.005Z,96060.16
2023-01-29T18:33:14.308Z,96054.75
2023-01-29T18:36:56.981Z,96052.88
2023-01-29T18:40:39.679Z,96038.78
2023-01-29T18:44:22.492Z,96050.75
2023-01-29T18:48:06.050Z,96053.47
2023-01-29T18:51:50.111Z,96055.09
2023-01-29T18:55:32.723Z,96059.56
2023-01-29T18:59:16.604Z,96058.28
2023-01-29T19:02:59.481Z,96056.06
2023-01-29T19:06:42.371Z,96051.72
2023-01-29T19:10:26.406Z,96061.69
2023-01-29T19:14:09.037Z,96047.97
2023-01-29T19:17:52.118Z,96049.63
2023-01-29T19:21:36.765Z,96059.69
2023-01-29T19:25:20.255Z,96045.13
2023-01-29T19:29:04.624Z,96045.59
2023-01-29T19:32:49.751Z,96038.19
2023-01-29T19:36:32.484Z,96042.78
2023-01-29T19:40:15.363Z,96050.28
2023-01-29T19:43:58.083Z,96053.22
2023-01-29T19:47:43.018Z,96052.03
2023-01-29T19:51:28.251Z,96039.13
2023-01-29T19:55:11.902Z,96032.91
2023-01-29T19:58:57.263Z,96033.13
2023-01-29T20:02:40.046Z,96034.66
2023-01-29T20:06:26.052Z,96029.84
2023-01-29T20:10:11.339Z,96033.09
2023-01-29T20:13:54.540Z,96022.75
2023-01-29T20:17:37.187Z,96021.31
2023-01-29T20:21:22.138Z,96021.06
2023-01-29T20:25:07.506Z,96017.66
2023-01-29T20:28:50.565Z,96022.47
2023-01-29T20:32:33.268Z,96022.94
2023-01-29T20:36:16.076Z,96019.41
2023-01-29T20:39:58.718Z,96020.19
2023-01-29T20:43:43.198Z,96020.41
2023-01-29T20:47:25.996Z,96020.88
2023-01-29T20:51:13.157Z,96017.22
2023-01-29T20:54:55.774Z,96006.75
2023-01-29T20:58:38.848Z,95991.50
2023-01-29T21:02:23.003Z,95997.13
2023-01-29T21:06:06.374Z,96006.25
2023-01-29T21:09:49.021Z,95984.41
2023-01-29T21:13:36.761Z,95991.00
2023-01-29T21:17:19.469Z,96003.72
2023-01-29T21:21:04.820Z,95989.78
2023-01-29T21:24:47.530Z,95994.94
2023-01-29T21:28:30.224Z,95985.88
2023-01-29T21:32:12.923Z,95995.59
2023-01-29T21:35:59.001Z,96003.28
2023-01-29T21:39:43.078Z,96007.97
2023-01-29T21:43:25.839Z,96000.44
2023-01-29T21:47:14.165Z,96002.91
2023-01-29T21:50:56.803Z,96002.44
2023-01-29T21:54:40.008Z,96011.47
2023-01-29T21:58:24.798Z,96000.66
2023-01-29T22:02:10.947Z,95997.81
2023-01-29T22:05:54.356Z,95994.97
2023-01-29T22:09:37.245Z,95991.75
2023-01-29T22:13:21.854Z,95991.03
2023-01-29T22:17:06.325Z,95995.13
2023-01-29T22:20:53.681Z,95985.88
2023-01-29T22:24:36.374Z,95977.66
2023-01-29T22:28:22.748Z,95986.31
2023-01-29T22:32:07.585Z,95978.81
2023-01-29T22:35:54.631Z,95972.72
2023-01-29T22:39:37.368Z,95960.75
2023-01-29T22:43:20.085Z,95948.22
2023-01-29T22:47:03.023Z,95947.88
2023-01-29T22:50:53.795Z,95942.72
2023-01-29T22:54:37.315Z,95939.56
2023-01-29T22:58:26.175Z,95929.78
2023-01-29T23:02:09.202Z,95907.63
2023-01-29T23:05:53.244Z,95900.00
2023-01-29T23:09:35.928Z,95907.03
2023-01-29T23:13:18.643Z,95905.13
2023-01-29T23:17:01.335Z,95905.84
2023-01-29T23:20:44.374Z,95894.09
2023-01-29T23:24:28.589Z,95900.69
2023-01-29T23:28:12.873Z,95894.31
2023-01-29T23:31:58.544Z,95888.56
2023-01-29T23:35:41.349Z,95888.69
2023-01-29T23:39:24.150Z,95889.72
2023-01-29T23:43:08.160Z,95885.41
2023-01-29T23:46:50.954Z,95891.69
2023-01-29T23:50:33.719Z,95882.81
2023-01-29T23:54:16.526Z,95874.59
2023-01-29T23:57:59.194Z,95873.69
